Dutch
Home     News     Corporate     Events & Tours     Flight ops     Crew centre      
My transavia virtual    Join us    Last logs    Who is flying    Forum    Software    Training    VRTS     
 

view flightdata
view flightplan
view OFP
view flightlog



flightdata:
pilot: Eelco van Berkum
flight: TRA6881
from: EHAM (Amsterdam Schiphol)
to: GMAD (Agadir)
date: 22-02-2019
departure: 09:32z
arrival: 13:18z
duration: 3:46
aircraft: B738 (PHHSJ)
distance: 1545 NM
touchdown: -127 ft/m @ 132 KIAS



flightplan:
-(FPL-TRA6881-IS
-B738/M-SDEEFGHIJRWXY/LB1
-EHAM0930
-N0439F370 WOODY UN872 LESDO UM728 RESMI UN857 SVL UN10 LINTO UR10 BARIS UB11 MAK UG850 OLOMA
-GMAD0358 GMMI
-E/0504 PBN/B1D1O1 DOF/190222 REG/PHHSJ SEL/JQLP CODE/4841A5 OPR/TRA RVR/200 RMK/TCAS)



operational flightplan (OFP):
DISPATCH BRIEFING
--------- --------- --------- --------- --------- --------- --------- --------- --------- ---------
PREDEPARTURE ATC CLEARANCE:
.

.
--------- --------- --------- --------- --------- --------- --------- --------- --------- ---------
OFP 1       22 FEB 19/09:15


TRA6881    C/S TRA6881  EHAM/AMS    GMAD/AGA            CRYZ SYS               CI 10
22 FEB 19  PH-HSJ       2245/2255   0258/0253           GND DIST     1463   
B737-800 CF  TAB:       CTOT ....  STA 02:35           AIR DIST     1656
                                                       AVG W/C       H032
MAXIMUM    ZFW 62731  LAW 66360   TOW 78975            AVG ISA       M00
ESTIMATED  ZFW 59964  LAW 62566   TOW 72969            F-F FACTOR     2.8
ACTUAL     ZFW......  LAW......  TOW.......

--------- --------- --------- --------- --------- --------- --------- --------- --------- ---------
TRIP       10403   0358           .....  .....
CONT         520   0014           .....  .....
ALTN         969   0022  GMMI     .....  .....  ....
FINAL       1113   0030           .....  .....
ADDNL          0   0000           .....  .....
TANKERING                  
PLN TOF    13005   0504
DIFF        ....   ....
PLN TOF     ....   ....  (CORRECTED)   
EXTRA          0   ....                  
TOF        13005                    
TAXI         120                      
BLOCK      13125        

--------- --------- --------- --------- --------- --------- --------- --------- --------- ---------

REASON EXTRA FUEL     MATRIX FUEL: ...
O ECN-ECONOMICAL      O TMP-TEMPORARILY      O ATC-AIR TRAFFIC CONTROL
O FOB-FUEL ON BOARD   O MSC-MISCELLANEOUS    O FPC-FLIGHT PLN CORR
O WXR-WEATHER         O TEC_TECHNICAL        ACT.CI/CRZ USED: . . .

--------- --------- --------- --------- --------- --------- --------- --------- --------- ---------
                                                  00 MIN HOLD GMAD: 0 EXTRA


--------- --------- --------- --------- --------- --------- --------- --------- --------- ---------
COMMANDERS NAME:                                  SIGNATURE:

--------- --------- --------- --------- --------- --------- --------- --------- --------- ---------
FROM:   EHAM ELEV -11         TO: GMAD ELEV 253     ALTN: GMMI ELEV 420
ATC C/S      : C/S TRA6881                AVG ISA  : M00
CO-ROUTE     : ---                       AVG TT   :
FMC-RES      : 2082                      AVG W/C  : H032
CRZ ALT      : FL350
CRZ SYS      : CI 10


           EHAM/18L N0439F350 KUDA1E WOODY UN872 LESDO UM728 RESMI UN857 SVL UN10 LINTO
UR10 BARIS UB11 MAK UG850 OLOMA OLOM2A GMAD/27

--------- --------- --------- --------- --------- --------- --------- --------- --------- ---------


RVSM ALT CHECK:  FL:...... LEFT: ...... STBY: ...... RIGHT: ......

--------- --------- ---------   -------- --------- --------- ---------


--------- --------- --------- --------- --------- --------- --------- --------- --------- ---------
DESTINATION ALTERNATE GMMI
--------- --------- --------- --------- --------- --------- --------- --------- --------- ---------



--------- --------- --------- --------- --------- --------- --------- --------- --------- ---------
ALTERNATE SUMMARY
--------- --------- --------- --------- --------- --------- --------- --------- --------- ---------

     ALTN     DIST  LVL      WC    TIME   FUEL  VIA
     GMMI/16    93 FL140    T014   0022    969  MOGB3D MOGBA H300 ESS
INFO/GMMX/28   126 FL200    T025   0026   1189  OLOM3D OLOMA UG850 LISRA
                                                 LISR4A
                                          P220
INFO/GMMZ/12   145 FL240    T022   0028   1332  KEGA3D KEGAG UG664 OZT
                                          P363
INFO/GMMN/35R  225 FL280    T039   0038   1687  OLOM3D OLOMA UG850 MAK UB11
                                                 MABAP UR722 CSD CSD1A
                                          P718



-(FPL-TRA6881-IS
-B738/M-SDEEFGHIJRWXY/LB1
-EHAM0930
-N0439F370 WOODY UN872 LESDO UM728 RESMI UN857 SVL UN10 LINTO UR10 BARIS UB11 MAK UG850 OLOMA
-GMAD0358 GMMI
-E/0504 PBN/B1D1O1 DOF/190222 REG/PHHSJ SEL/JQLP CODE/4841A5 OPR/TRA RVR/200 RMK/TCAS)

WEATHER BRIEFING - GENERATED 22 FEB 2019 09:15 UTC
--------------------------------------------------------------------------------

EHAM GMAD GMMI GMMX GMMZ GMMN

--------------------------------------------------------------------------------
ORIGIN: EHAM (SCHIPHOL)
--------------------------------------------------------------------------------
EHAM 220855Z VRB02KT 7000 FEW010 BKN020 08/08 Q1036 NOSIG

EHAM 220503Z 2206/2312 VRB03KT 4000 BR FEW003 OVC016 PROB30 2206/2209 2500 BKN003
      BECMG 2210/2213 09006KT 8000 NSW BKN020
      BECMG 2221/2224 6000 NSC
      BECMG 2307/2310 13010KT CAVOK


--------------------------------------------------------------------------------
DESTINATION: GMAD (AGADIR)
--------------------------------------------------------------------------------
GMAD 220900Z 07010KT 8000 NSC 17/00 Q1025 NOSIG

GMAD 220500Z 2206/2312 06008KT CAVOK


--------------------------------------------------------------------------------
ALTERNATE: GMMI (ESSAOUIRA)
--------------------------------------------------------------------------------
GMMI 220900Z 06004KT 6000 SCT030 15/09 Q1025 NOSIG

GMMI 220500Z 2206/2312 VRB02KT CAVOK=  GMML 220500Z 2206/2312 11006KT CAVOK


--------------------------------------------------------------------------------
ALTERNATE: GMMX (MARRAKECH)
--------------------------------------------------------------------------------
GMMX 220900Z VRB02KT 6000 NSC 15/07 Q1027 NOSIG

GMMX 220500Z 2206/2312 06006KT CAVOK=  LCLK 220530Z 2206/2306 32006KT 9999 FEW020
      BECMG 2209/2213 20010KT PROB30
      TEMPO 2209/2218 5000 SHRA SCT020TCU PROB30
      TEMPO 2210/2216 VRB20G30KT 2000 TSRA SCT020CB
      BECMG 2215/2219 31006KT


--------------------------------------------------------------------------------
ALTERNATE: GMMZ (OUARZAZATE)
--------------------------------------------------------------------------------
GMMZ 220900Z VRB02KT 6000 NSC 08/01 Q1032 NOSIG

GMMZ 220500Z 2206/2312 VRB02KT 8000 NSC


--------------------------------------------------------------------------------
ALTERNATE: GMMN (CASABLANCA)
--------------------------------------------------------------------------------
GMMN 220900Z 13005KT CAVOK 14/06 Q1026 NOSIG

GMMN 220500Z 2206/2312 12004KT CAVOK
      BECMG 2209/2212 36010KT
      BECMG 2218/2222 10004KT


NOTAM BRIEFING - GENERATED 22 FEB 2019 09:15 UTC
--------------------------------------------------------------------------------

EHAM GMAD GMMI GMMI GMMX GMMZ GMMN

--------------------------------------------------------------------------------
GLOBAL TRANSAVIA.COM VIRTUAL NOTAMS
--------------------------------------------------------------------------------
REF:NIL PLEASE CONTACT OPERATIONS IN CASE OF STRUCTURAL FLIGHTPLAN ERRORS ON FLIGHT-OPS@TRANSAVIA-VIRTUAL.COM
VALID:UFN

REF:NIL
PLEASE CHECK ACARS EVERY 10 MINUTES WHEN FLYING WITH SOUND OFF. AN NEW ACARS MESSAGE PRODUCE A SOUND SIGNAL UNTILL ITS READ. FLOWCONTROL DON'T RECEIVE MUCH REACTION ON OUTGOING ACARS MESSAGES ACCORDING FLIGHTSTATUS.
SOURCE: SPL/HV/OCC/
END VALID: UFN

REF:NIL
PLEASE CONTACT FLOWCONTROL IN CASE OF PROBLEMS WITH ROUTINGS
SOURCE: SPL/HV/OCC/
END VALID: UFN

REF:NIL
IN CASE OF ENGINE-OUT FLY V2 OR V2 20 MAX. UNTIL ABOVE MSA.
LEVEL-OFF AT AN ALTITUDE ROUNDED OFF TO THE FIRST 1000 FT OF THE HIGHEST MSA.
E.G: MSA EHAM; 1.7 AND 2.3 LEVEL-OFF 3000 FT. AFTER LANDING MAKE A REP TO OCC ON 131.975
SOURCE:SPL/HV/OCC
END VALID:UFN



flightlog:
Pilot : Eelco van Berkum
Flight: TRA6881
From  : EHAM Schiphol
To    : GMAD Agadir

[FLIGHTLOG] 1.5.4
22-02-2019 09:16:51z, logging started
22-02-2019 09:31:51z, pos report: 000 KIAS, 00 012 ft, heading 003, winds 151 @ 02 kts
22-02-2019 09:32:01z, parking brake released
22-02-2019 09:34:46z, flaps set to 13%
22-02-2019 09:34:53z, flaps set to 25%
22-02-2019 09:34:57z, flaps set to 38%
22-02-2019 09:39:12z, take-off at 158 KIAS
22-02-2019 09:39:12z, pos report: 158 KIAS, 00 017 ft, heading 237, winds 101 @ 02 kts
22-02-2019 09:39:12z, flying online @ IVAO (TRA6881)
22-02-2019 09:39:12z, position: EHAM - Schiphol
22-02-2019 09:39:20z, retracted gear at 168 KIAS and 194 ft AGL
22-02-2019 09:40:16z, flaps set to 25%
22-02-2019 09:40:19z, flaps set to 13%
22-02-2019 09:40:36z, flaps set to 0%
22-02-2019 09:46:52z, pos report: 305 KIAS, 17 126 ft, heading 208, winds 345 @ 28 kts
22-02-2019 10:01:53z, pos report: 256 KIAS, 37 676 ft, heading 202, winds 037 @ 26 kts
22-02-2019 10:16:54z, pos report: 256 KIAS, 37 642 ft, heading 241, winds 029 @ 12 kts
22-02-2019 10:31:55z, pos report: 256 KIAS, 37 611 ft, heading 237, winds 336 @ 43 kts
22-02-2019 10:46:56z, pos report: 256 KIAS, 37 552 ft, heading 215, winds 334 @ 46 kts
22-02-2019 11:01:57z, pos report: 256 KIAS, 37 471 ft, heading 216, winds 322 @ 44 kts
22-02-2019 11:16:57z, pos report: 256 KIAS, 37 484 ft, heading 215, winds 314 @ 40 kts
22-02-2019 11:31:58z, pos report: 256 KIAS, 37 479 ft, heading 207, winds 302 @ 39 kts
22-02-2019 11:46:59z, pos report: 256 KIAS, 37 466 ft, heading 189, winds 294 @ 40 kts
22-02-2019 12:02:00z, pos report: 255 KIAS, 37 467 ft, heading 189, winds 299 @ 42 kts
22-02-2019 12:17:01z, pos report: 255 KIAS, 37 457 ft, heading 187, winds 292 @ 29 kts
22-02-2019 12:32:03z, pos report: 255 KIAS, 37 379 ft, heading 188, winds 290 @ 36 kts
22-02-2019 12:47:03z, pos report: 256 KIAS, 36 701 ft, heading 208, winds 288 @ 41 kts
22-02-2019 13:02:04z, pos report: 283 KIAS, 12 952 ft, heading 202, winds 027 @ 01 kts
22-02-2019 13:04:06z, deployed spoilers
22-02-2019 13:08:03z, retracted spoilers
22-02-2019 13:08:27z, flaps set to 13%
22-02-2019 13:08:49z, flaps set to 25%
22-02-2019 13:09:13z, flaps set to 38%
22-02-2019 13:09:41z, flaps set to 50%
22-02-2019 13:09:44z, lowered gear at 169 KIAS and 4017 ft AGL
22-02-2019 13:09:45z, flaps set to 62%
22-02-2019 13:09:54z, flaps set to 75%
22-02-2019 13:09:58z, flaps set to 87%
22-02-2019 13:10:12z, flaps set to 100%
22-02-2019 13:14:40z, touchdown: -127ft/m at 132 KIAS
22-02-2019 13:14:40z, pos report: 132 KIAS, 00 258 ft, heading 092, winds 123 @ 07 kts
22-02-2019 13:14:40z, flying online @ IVAO (TRA6881)
22-02-2019 13:14:40z, position: GMAD - Agadir
22-02-2019 13:14:41z, deployed spoilers
22-02-2019 13:15:02z, retracted spoilers
22-02-2019 13:15:08z, flaps set to 87%
22-02-2019 13:15:12z, flaps set to 75%
22-02-2019 13:15:16z, flaps set to 62%
22-02-2019 13:15:19z, flaps set to 50%
22-02-2019 13:15:22z, flaps set to 38%
22-02-2019 13:15:26z, flaps set to 25%
22-02-2019 13:15:30z, flaps set to 13%
22-02-2019 13:15:38z, flaps set to 0%
22-02-2019 13:17:05z, pos report: 010 KIAS, 00 257 ft, heading 272, winds 134 @ 07 kts
22-02-2019 13:18:16z, parking brake set
22-02-2019 13:20:07z, logging ended

©2009-2019, transavia virtual. All rights reserved. This website is only meant for simulation purposes.
This website is not owned by transavia, nor is transavia responsible for the content of this website.